sensor_id;sensor_type;location;lat;lon;timestamp;P1;durP1;ratioP1;P2;durP2;ratioP2
29026;SDS011;16120;48.608;9.092;2023-07-13T00:02:41;101.50;;;6.80;;
29026;SDS011;16120;48.608;9.092;2023-07-13T00:06:37;101.87;;;6.23;;
29026;SDS011;16120;48.608;9.092;2023-07-13T00:10:33;102.37;;;6.60;;
29026;SDS011;16120;48.608;9.092;2023-07-13T00:14:28;101.60;;;6.10;;
29026;SDS011;16120;48.608;9.092;2023-07-13T00:18:23;102.43;;;7.30;;
29026;SDS011;16120;48.608;9.092;2023-07-13T00:22:20;102.37;;;6.60;;
29026;SDS011;16120;48.608;9.092;2023-07-13T00:26:15;102.47;;;7.13;;
29026;SDS011;16120;48.608;9.092;2023-07-13T00:30:10;102.87;;;7.10;;
29026;SDS011;16120;48.608;9.092;2023-07-13T00:34:06;102.93;;;6.57;;
29026;SDS011;16120;48.608;9.092;2023-07-13T00:38:02;103.03;;;6.88;;
29026;SDS011;16120;48.608;9.092;2023-07-13T00:41:57;103.07;;;6.77;;
29026;SDS011;16120;48.608;9.092;2023-07-13T00:46:09;102.80;;;6.70;;
29026;SDS011;16120;48.608;9.092;2023-07-13T00:50:05;103.37;;;6.90;;
29026;SDS011;16120;48.608;9.092;2023-07-13T00:54:03;103.47;;;7.00;;
29026;SDS011;16120;48.608;9.092;2023-07-13T00:57:59;103.47;;;6.93;;
29026;SDS011;16120;48.608;9.092;2023-07-13T01:01:55;103.77;;;7.00;;
29026;SDS011;16120;48.608;9.092;2023-07-13T01:05:50;103.97;;;7.33;;
29026;SDS011;16120;48.608;9.092;2023-07-13T01:09:47;103.77;;;6.97;;
29026;SDS011;16120;48.608;9.092;2023-07-13T01:13:42;104.27;;;7.87;;
29026;SDS011;16120;48.608;9.092;2023-07-13T01:17:37;104.40;;;7.57;;
29026;SDS011;16120;48.608;9.092;2023-07-13T01:21:34;104.07;;;7.20;;
29026;SDS011;16120;48.608;9.092;2023-07-13T01:25:29;104.27;;;7.17;;
29026;SDS011;16120;48.608;9.092;2023-07-13T01:29:24;104.37;;;7.50;;
29026;SDS011;16120;48.608;9.092;2023-07-13T01:33:19;103.57;;;7.30;;
29026;SDS011;16120;48.608;9.092;2023-07-13T01:37:18;104.03;;;6.97;;
29026;SDS011;16120;48.608;9.092;2023-07-13T01:41:14;104.20;;;7.33;;
29026;SDS011;16120;48.608;9.092;2023-07-13T01:45:09;103.63;;;7.10;;
29026;SDS011;16120;48.608;9.092;2023-07-13T01:49:04;104.17;;;6.97;;
29026;SDS011;16120;48.608;9.092;2023-07-13T01:53:01;104.67;;;7.20;;
29026;SDS011;16120;48.608;9.092;2023-07-13T01:56:56;104.47;;;7.20;;
29026;SDS011;16120;48.608;9.092;2023-07-13T02:00:52;104.47;;;7.07;;
29026;SDS011;16120;48.608;9.092;2023-07-13T02:04:47;104.57;;;7.00;;
29026;SDS011;16120;48.608;9.092;2023-07-13T02:08:43;104.67;;;7.13;;
29026;SDS011;16120;48.608;9.092;2023-07-13T02:12:39;104.57;;;7.10;;
29026;SDS011;16120;48.608;9.092;2023-07-13T02:16:34;104.77;;;6.83;;
29026;SDS011;16120;48.608;9.092;2023-07-13T02:20:29;104.47;;;6.57;;
29026;SDS011;16120;48.608;9.092;2023-07-13T02:24:26;104.97;;;6.60;;
29026;SDS011;16120;48.608;9.092;2023-07-13T02:28:21;105.00;;;7.00;;
29026;SDS011;16120;48.608;9.092;2023-07-13T02:32:16;104.87;;;6.90;;
29026;SDS011;16120;48.608;9.092;2023-07-13T02:36:11;104.72;;;7.07;;
29026;SDS011;16120;48.608;9.092;2023-07-13T02:40:09;105.37;;;7.00;;
29026;SDS011;16120;48.608;9.092;2023-07-13T02:44:04;105.07;;;7.37;;
29026;SDS011;16120;48.608;9.092;2023-07-13T02:47:59;104.17;;;6.70;;
29026;SDS011;16120;48.608;9.092;2023-07-13T02:51:54;105.13;;;6.77;;
29026;SDS011;16120;48.608;9.092;2023-07-13T02:55:51;105.23;;;7.10;;
29026;SDS011;16120;48.608;9.092;2023-07-13T02:59:46;105.00;;;6.83;;
29026;SDS011;16120;48.608;9.092;2023-07-13T03:03:41;105.37;;;6.97;;
29026;SDS011;16120;48.608;9.092;2023-07-13T03:07:36;105.47;;;6.73;;
29026;SDS011;16120;48.608;9.092;2023-07-13T03:11:33;104.90;;;6.73;;
29026;SDS011;16120;48.608;9.092;2023-07-13T03:15:28;104.83;;;6.57;;
29026;SDS011;16120;48.608;9.092;2023-07-13T03:19:23;105.50;;;6.87;;
29026;SDS011;16120;48.608;9.092;2023-07-13T03:23:20;105.33;;;7.13;;
29026;SDS011;16120;48.608;9.092;2023-07-13T03:27:19;105.83;;;6.63;;
29026;SDS011;16120;48.608;9.092;2023-07-13T03:31:16;105.70;;;7.00;;
29026;SDS011;16120;48.608;9.092;2023-07-13T03:35:12;106.00;;;6.47;;
29026;SDS011;16120;48.608;9.092;2023-07-13T03:39:08;105.13;;;6.93;;
29026;SDS011;16120;48.608;9.092;2023-07-13T03:43:05;105.30;;;7.07;;
29026;SDS011;16120;48.608;9.092;2023-07-13T03:47:00;106.00;;;7.07;;
29026;SDS011;16120;48.608;9.092;2023-07-13T03:50:55;106.27;;;6.77;;
29026;SDS011;16120;48.608;9.092;2023-07-13T03:54:50;105.63;;;7.03;;
29026;SDS011;16120;48.608;9.092;2023-07-13T03:58:48;105.53;;;7.10;;
29026;SDS011;16120;48.608;9.092;2023-07-13T04:02:43;105.63;;;6.90;;
29026;SDS011;16120;48.608;9.092;2023-07-13T04:06:38;105.87;;;6.87;;
29026;SDS011;16120;48.608;9.092;2023-07-13T04:10:34;105.87;;;7.07;;
29026;SDS011;16120;48.608;9.092;2023-07-13T04:14:30;106.17;;;7.10;;
29026;SDS011;16120;48.608;9.092;2023-07-13T04:18:25;106.37;;;7.10;;
29026;SDS011;16120;48.608;9.092;2023-07-13T04:22:21;105.47;;;7.07;;
29026;SDS011;16120;48.608;9.092;2023-07-13T04:26:16;106.07;;;6.80;;
29026;SDS011;16120;48.608;9.092;2023-07-13T04:30:12;105.60;;;7.10;;
29026;SDS011;16120;48.608;9.092;2023-07-13T04:34:08;106.47;;;7.10;;
29026;SDS011;16120;48.608;9.092;2023-07-13T04:38:03;106.57;;;7.10;;
29026;SDS011;16120;48.608;9.092;2023-07-13T04:41:58;106.00;;;7.27;;
29026;SDS011;16120;48.608;9.092;2023-07-13T04:45:55;105.63;;;7.10;;
29026;SDS011;16120;48.608;9.092;2023-07-13T04:49:50;106.20;;;7.30;;
29026;SDS011;16120;48.608;9.092;2023-07-13T04:53:47;105.70;;;6.97;;
29026;SDS011;16120;48.608;9.092;2023-07-13T04:57:42;106.40;;;7.57;;
29026;SDS011;16120;48.608;9.092;2023-07-13T05:01:41;106.37;;;7.47;;
29026;SDS011;16120;48.608;9.092;2023-07-13T05:05:36;105.40;;;7.10;;
29026;SDS011;16120;48.608;9.092;2023-07-13T05:09:31;106.10;;;7.17;;
29026;SDS011;16120;48.608;9.092;2023-07-13T05:13:26;105.67;;;7.33;;
29026;SDS011;16120;48.608;9.092;2023-07-13T05:17:23;105.10;;;7.00;;
29026;SDS011;16120;48.608;9.092;2023-07-13T05:21:18;105.70;;;7.20;;
29026;SDS011;16120;48.608;9.092;2023-07-13T05:25:14;105.87;;;6.87;;
29026;SDS011;16120;48.608;9.092;2023-07-13T05:29:09;105.67;;;6.90;;
29026;SDS011;16120;48.608;9.092;2023-07-13T05:33:05;105.10;;;6.87;;
29026;SDS011;16120;48.608;9.092;2023-07-13T05:37:01;105.07;;;7.00;;
29026;SDS011;16120;48.608;9.092;2023-07-13T05:40:57;105.57;;;6.90;;
29026;SDS011;16120;48.608;9.092;2023-07-13T05:44:53;105.17;;;6.87;;
29026;SDS011;16120;48.608;9.092;2023-07-13T05:48:49;105.37;;;6.77;;
29026;SDS011;16120;48.608;9.092;2023-07-13T06:03:17;104.17;;;7.23;;
29026;SDS011;16120;48.608;9.092;2023-07-13T06:07:12;104.53;;;7.37;;
29026;SDS011;16120;48.608;9.092;2023-07-13T06:11:10;103.37;;;7.70;;
29026;SDS011;16120;48.608;9.092;2023-07-13T06:15:07;102.60;;;7.50;;
29026;SDS011;16120;48.608;9.092;2023-07-13T06:19:04;103.80;;;7.77;;
29026;SDS011;16120;48.608;9.092;2023-07-13T06:23:00;102.57;;;7.27;;
29026;SDS011;16120;48.608;9.092;2023-07-13T06:26:55;102.07;;;6.90;;
29026;SDS011;16120;48.608;9.092;2023-07-13T06:30:51;101.87;;;7.30;;
29026;SDS011;16120;48.608;9.092;2023-07-13T06:34:47;101.90;;;6.80;;
29026;SDS011;16120;48.608;9.092;2023-07-13T06:38:42;101.80;;;7.17;;
29026;SDS011;16120;48.608;9.092;2023-07-13T06:42:38;100.90;;;7.20;;
29026;SDS011;16120;48.608;9.092;2023-07-13T06:46:33;101.17;;;6.87;;
29026;SDS011;16120;48.608;9.092;2023-07-13T06:50:29;100.87;;;7.00;;
29026;SDS011;16120;48.608;9.092;2023-07-13T06:54:25;100.47;;;7.00;;
29026;SDS011;16120;48.608;9.092;2023-07-13T06:58:21;99.97;;;6.90;;
29026;SDS011;16120;48.608;9.092;2023-07-13T07:02:16;100.07;;;6.77;;
29026;SDS011;16120;48.608;9.092;2023-07-13T07:06:14;99.90;;;6.90;;
29026;SDS011;16120;48.608;9.092;2023-07-13T07:10:09;99.90;;;7.20;;
29026;SDS011;16120;48.608;9.092;2023-07-13T07:14:04;99.50;;;7.13;;
29026;SDS011;16120;48.608;9.092;2023-07-13T07:17:59;99.07;;;7.10;;
29026;SDS011;16120;48.608;9.092;2023-07-13T07:21:56;99.17;;;6.67;;
29026;SDS011;16120;48.608;9.092;2023-07-13T07:25:51;99.63;;;7.70;;
29026;SDS011;16120;48.608;9.092;2023-07-13T07:29:46;98.97;;;7.07;;
29026;SDS011;16120;48.608;9.092;2023-07-13T07:33:42;98.27;;;6.47;;
29026;SDS011;16120;48.608;9.092;2023-07-13T07:37:38;99.40;;;6.97;;
29026;SDS011;16120;48.608;9.092;2023-07-13T07:41:33;99.00;;;6.50;;
29026;SDS011;16120;48.608;9.092;2023-07-13T07:45:28;97.47;;;6.53;;
29026;SDS011;16120;48.608;9.092;2023-07-13T07:49:24;98.30;;;6.80;;
29026;SDS011;16120;48.608;9.092;2023-07-13T07:53:20;98.32;;;6.57;;
29026;SDS011;16120;48.608;9.092;2023-07-13T07:57:16;98.50;;;6.47;;
29026;SDS011;16120;48.608;9.092;2023-07-13T08:01:13;97.10;;;6.53;;
29026;SDS011;16120;48.608;9.092;2023-07-13T08:05:09;97.57;;;6.50;;
29026;SDS011;16120;48.608;9.092;2023-07-13T08:09:05;97.80;;;6.40;;
29026;SDS011;16120;48.608;9.092;2023-07-13T08:13:00;97.67;;;6.60;;
29026;SDS011;16120;48.608;9.092;2023-07-13T08:16:55;96.87;;;6.47;;
29026;SDS011;16120;48.608;9.092;2023-07-13T08:20:51;97.30;;;6.50;;
29026;SDS011;16120;48.608;9.092;2023-07-13T08:24:47;97.77;;;6.53;;
29026;SDS011;16120;48.608;9.092;2023-07-13T08:28:43;96.70;;;6.50;;
29026;SDS011;16120;48.608;9.092;2023-07-13T08:32:38;97.30;;;6.40;;
29026;SDS011;16120;48.608;9.092;2023-07-13T08:36:33;96.47;;;6.30;;
29026;SDS011;16120;48.608;9.092;2023-07-13T08:40:30;97.20;;;6.30;;
29026;SDS011;16120;48.608;9.092;2023-07-13T08:44:27;97.70;;;5.63;;
29026;SDS011;16120;48.608;9.092;2023-07-13T08:48:25;96.67;;;6.40;;
29026;SDS011;16120;48.608;9.092;2023-07-13T08:52:30;96.47;;;6.50;;
29026;SDS011;16120;48.608;9.092;2023-07-13T08:56:27;95.97;;;6.40;;
29026;SDS011;16120;48.608;9.092;2023-07-13T09:00:23;96.83;;;6.20;;
29026;SDS011;16120;48.608;9.092;2023-07-13T09:04:21;96.37;;;6.33;;
29026;SDS011;16120;48.608;9.092;2023-07-13T09:08:23;97.50;;;5.97;;
29026;SDS011;16120;48.608;9.092;2023-07-13T09:12:25;96.47;;;6.17;;
29026;SDS011;16120;48.608;9.092;2023-07-13T09:16:22;96.27;;;6.50;;
29026;SDS011;16120;48.608;9.092;2023-07-13T09:20:19;95.87;;;6.13;;
29026;SDS011;16120;48.608;9.092;2023-07-13T09:28:38;96.57;;;5.90;;
29026;SDS011;16120;48.608;9.092;2023-07-13T09:32:34;96.83;;;5.90;;
29026;SDS011;16120;48.608;9.092;2023-07-13T09:36:30;96.50;;;5.60;;
29026;SDS011;16120;48.608;9.092;2023-07-13T09:40:28;96.70;;;5.67;;
29026;SDS011;16120;48.608;9.092;2023-07-13T09:44:30;95.63;;;6.10;;
29026;SDS011;16120;48.608;9.092;2023-07-13T09:48:26;95.80;;;6.00;;
29026;SDS011;16120;48.608;9.092;2023-07-13T09:52:38;95.60;;;6.10;;
29026;SDS011;16120;48.608;9.092;2023-07-13T09:56:35;95.17;;;6.03;;
29026;SDS011;16120;48.608;9.092;2023-07-13T10:00:31;95.90;;;5.97;;
29026;SDS011;16120;48.608;9.092;2023-07-13T10:04:30;94.73;;;6.30;;
29026;SDS011;16120;48.608;9.092;2023-07-13T10:08:26;95.73;;;5.90;;
29026;SDS011;16120;48.608;9.092;2023-07-13T10:12:21;95.20;;;6.10;;
29026;SDS011;16120;48.608;9.092;2023-07-13T10:16:18;95.80;;;5.43;;
29026;SDS011;16120;48.608;9.092;2023-07-13T10:20:13;94.97;;;5.70;;
29026;SDS011;16120;48.608;9.092;2023-07-13T10:24:10;94.60;;;6.10;;
29026;SDS011;16120;48.608;9.092;2023-07-13T10:28:10;95.87;;;5.57;;
29026;SDS011;16120;48.608;9.092;2023-07-13T10:32:09;95.60;;;5.80;;
29026;SDS011;16120;48.608;9.092;2023-07-13T10:36:17;95.20;;;5.83;;
29026;SDS011;16120;48.608;9.092;2023-07-13T10:40:14;95.40;;;6.10;;
29026;SDS011;16120;48.608;9.092;2023-07-13T10:44:15;96.10;;;5.80;;
29026;SDS011;16120;48.608;9.092;2023-07-13T10:48:14;95.90;;;6.10;;
29026;SDS011;16120;48.608;9.092;2023-07-13T10:56:22;96.43;;;5.80;;
29026;SDS011;16120;48.608;9.092;2023-07-13T11:00:18;95.90;;;6.10;;
29026;SDS011;16120;48.608;9.092;2023-07-13T11:04:19;95.80;;;5.90;;
29026;SDS011;16120;48.608;9.092;2023-07-13T11:08:16;96.00;;;5.60;;
29026;SDS011;16120;48.608;9.092;2023-07-13T11:12:26;96.30;;;5.67;;
29026;SDS011;16120;48.608;9.092;2023-07-13T11:16:35;95.27;;;6.03;;
29026;SDS011;16120;48.608;9.092;2023-07-13T11:20:33;95.20;;;5.87;;
29026;SDS011;16120;48.608;9.092;2023-07-13T11:24:29;95.60;;;6.00;;
29026;SDS011;16120;48.608;9.092;2023-07-13T11:28:25;96.63;;;5.80;;
29026;SDS011;16120;48.608;9.092;2023-07-13T11:32:21;96.37;;;5.77;;
29026;SDS011;16120;48.608;9.092;2023-07-13T11:36:19;96.43;;;5.63;;
29026;SDS011;16120;48.608;9.092;2023-07-13T11:40:15;95.53;;;6.10;;
29026;SDS011;16120;48.608;9.092;2023-07-13T11:44:13;95.00;;;6.20;;
29026;SDS011;16120;48.608;9.092;2023-07-13T11:48:18;95.37;;;5.50;;
29026;SDS011;16120;48.608;9.092;2023-07-13T11:52:16;94.93;;;5.73;;
29026;SDS011;16120;48.608;9.092;2023-07-13T11:56:12;96.10;;;5.50;;
29026;SDS011;16120;48.608;9.092;2023-07-13T12:00:11;96.10;;;5.43;;
29026;SDS011;16120;48.608;9.092;2023-07-13T12:04:08;95.80;;;5.67;;
29026;SDS011;16120;48.608;9.092;2023-07-13T12:08:10;95.63;;;5.30;;
29026;SDS011;16120;48.608;9.092;2023-07-13T12:12:10;95.87;;;5.50;;
29026;SDS011;16120;48.608;9.092;2023-07-13T12:16:12;95.27;;;5.93;;
29026;SDS011;16120;48.608;9.092;2023-07-13T12:20:17;96.10;;;5.47;;
29026;SDS011;16120;48.608;9.092;2023-07-13T12:24:16;96.40;;;5.50;;
29026;SDS011;16120;48.608;9.092;2023-07-13T12:28:22;95.00;;;5.80;;
29026;SDS011;16120;48.608;9.092;2023-07-13T12:32:18;94.90;;;5.77;;
29026;SDS011;16120;48.608;9.092;2023-07-13T12:36:13;95.83;;;5.30;;
29026;SDS011;16120;48.608;9.092;2023-07-13T12:40:12;95.23;;;5.40;;
29026;SDS011;16120;48.608;9.092;2023-07-13T12:44:09;96.17;;;5.50;;
29026;SDS011;16120;48.608;9.092;2023-07-13T12:48:06;96.03;;;5.43;;
29026;SDS011;16120;48.608;9.092;2023-07-13T12:52:10;95.60;;;5.40;;
29026;SDS011;16120;48.608;9.092;2023-07-13T12:56:11;95.30;;;5.93;;
29026;SDS011;16120;48.608;9.092;2023-07-13T13:00:20;95.70;;;5.53;;
29026;SDS011;16120;48.608;9.092;2023-07-13T13:04:16;95.17;;;5.90;;
29026;SDS011;16120;48.608;9.092;2023-07-13T13:08:12;95.33;;;5.80;;
29026;SDS011;16120;48.608;9.092;2023-07-13T13:12:08;95.10;;;5.93;;
29026;SDS011;16120;48.608;9.092;2023-07-13T13:16:14;94.97;;;5.80;;
29026;SDS011;16120;48.608;9.092;2023-07-13T13:20:14;95.07;;;5.87;;
29026;SDS011;16120;48.608;9.092;2023-07-13T13:24:10;95.60;;;5.80;;
29026;SDS011;16120;48.608;9.092;2023-07-13T13:28:10;95.40;;;5.70;;
29026;SDS011;16120;48.608;9.092;2023-07-13T13:32:09;95.00;;;5.90;;
29026;SDS011;16120;48.608;9.092;2023-07-13T13:36:07;94.60;;;6.00;;
29026;SDS011;16120;48.608;9.092;2023-07-13T13:40:04;94.80;;;6.10;;
29026;SDS011;16120;48.608;9.092;2023-07-13T13:44:01;95.10;;;6.03;;
29026;SDS011;16120;48.608;9.092;2023-07-13T13:47:56;95.10;;;5.90;;
29026;SDS011;16120;48.608;9.092;2023-07-13T13:51:52;94.80;;;5.80;;
29026;SDS011;16120;48.608;9.092;2023-07-13T13:55:47;94.90;;;5.90;;
29026;SDS011;16120;48.608;9.092;2023-07-13T13:59:48;95.20;;;5.47;;
29026;SDS011;16120;48.608;9.092;2023-07-13T14:03:44;95.00;;;6.00;;
29026;SDS011;16120;48.608;9.092;2023-07-13T14:07:40;95.33;;;5.30;;
29026;SDS011;16120;48.608;9.092;2023-07-13T14:11:35;94.80;;;6.00;;
29026;SDS011;16120;48.608;9.092;2023-07-13T14:15:32;94.80;;;5.73;;
29026;SDS011;16120;48.608;9.092;2023-07-13T14:19:27;95.20;;;5.97;;
29026;SDS011;16120;48.608;9.092;2023-07-13T14:23:22;95.20;;;5.40;;
29026;SDS011;16120;48.608;9.092;2023-07-13T14:27:17;95.00;;;6.03;;
29026;SDS011;16120;48.608;9.092;2023-07-13T14:31:14;94.80;;;5.73;;
29026;SDS011;16120;48.608;9.092;2023-07-13T14:35:10;94.90;;;5.63;;
29026;SDS011;16120;48.608;9.092;2023-07-13T14:39:09;94.83;;;5.73;;
29026;SDS011;16120;48.608;9.092;2023-07-13T14:43:14;94.63;;;5.50;;
29026;SDS011;16120;48.608;9.092;2023-07-13T14:47:11;94.80;;;5.30;;
29026;SDS011;16120;48.608;9.092;2023-07-13T14:51:07;94.93;;;5.33;;
29026;SDS011;16120;48.608;9.092;2023-07-13T14:55:04;95.00;;;5.33;;
29026;SDS011;16120;48.608;9.092;2023-07-13T14:58:59;95.20;;;5.63;;
29026;SDS011;16120;48.608;9.092;2023-07-13T15:03:03;95.00;;;5.20;;
29026;SDS011;16120;48.608;9.092;2023-07-13T15:06:59;96.23;;;5.70;;
29026;SDS011;16120;48.608;9.092;2023-07-13T15:10:55;95.30;;;5.57;;
29026;SDS011;16120;48.608;9.092;2023-07-13T15:14:50;94.77;;;5.70;;
29026;SDS011;16120;48.608;9.092;2023-07-13T15:18:47;95.43;;;5.70;;
29026;SDS011;16120;48.608;9.092;2023-07-13T15:22:42;95.50;;;5.60;;
29026;SDS011;16120;48.608;9.092;2023-07-13T15:26:38;95.53;;;5.77;;
29026;SDS011;16120;48.608;9.092;2023-07-13T15:30:34;95.10;;;5.50;;
29026;SDS011;16120;48.608;9.092;2023-07-13T15:34:32;95.37;;;6.07;;
29026;SDS011;16120;48.608;9.092;2023-07-13T15:38:28;94.97;;;5.50;;
29026;SDS011;16120;48.608;9.092;2023-07-13T15:42:27;95.27;;;5.77;;
29026;SDS011;16120;48.608;9.092;2023-07-13T15:46:22;95.20;;;5.43;;
29026;SDS011;16120;48.608;9.092;2023-07-13T15:50:20;95.00;;;5.47;;
29026;SDS011;16120;48.608;9.092;2023-07-13T15:54:18;95.40;;;5.63;;
29026;SDS011;16120;48.608;9.092;2023-07-13T15:58:13;95.30;;;5.57;;
29026;SDS011;16120;48.608;9.092;2023-07-13T16:02:12;95.40;;;5.53;;
29026;SDS011;16120;48.608;9.092;2023-07-13T16:06:16;95.33;;;6.00;;
29026;SDS011;16120;48.608;9.092;2023-07-13T16:10:15;95.40;;;5.63;;
29026;SDS011;16120;48.608;9.092;2023-07-13T16:14:11;95.77;;;5.70;;
29026;SDS011;16120;48.608;9.092;2023-07-13T16:18:08;95.60;;;5.70;;
29026;SDS011;16120;48.608;9.092;2023-07-13T16:22:04;95.50;;;5.60;;
29026;SDS011;16120;48.608;9.092;2023-07-13T16:26:00;94.97;;;5.53;;
29026;SDS011;16120;48.608;9.092;2023-07-13T16:29:56;95.30;;;5.40;;
29026;SDS011;16120;48.608;9.092;2023-07-13T16:33:52;95.40;;;5.43;;
29026;SDS011;16120;48.608;9.092;2023-07-13T16:37:48;95.20;;;5.47;;
29026;SDS011;16120;48.608;9.092;2023-07-13T16:41:44;95.77;;;5.30;;
29026;SDS011;16120;48.608;9.092;2023-07-13T16:45:39;95.20;;;5.93;;
29026;SDS011;16120;48.608;9.092;2023-07-13T16:49:36;95.00;;;5.80;;
29026;SDS011;16120;48.608;9.092;2023-07-13T16:53:33;95.17;;;5.67;;
29026;SDS011;16120;48.608;9.092;2023-07-13T16:57:30;95.03;;;5.60;;
29026;SDS011;16120;48.608;9.092;2023-07-13T17:01:27;94.80;;;5.80;;
29026;SDS011;16120;48.608;9.092;2023-07-13T17:05:22;95.30;;;5.30;;
29026;SDS011;16120;48.608;9.092;2023-07-13T17:09:18;94.97;;;5.40;;
29026;SDS011;16120;48.608;9.092;2023-07-13T17:13:14;95.00;;;5.33;;
29026;SDS011;16120;48.608;9.092;2023-07-13T17:17:12;95.20;;;5.50;;
29026;SDS011;16120;48.608;9.092;2023-07-13T17:25:16;95.43;;;5.40;;
29026;SDS011;16120;48.608;9.092;2023-07-13T17:29:12;96.10;;;5.43;;
29026;SDS011;16120;48.608;9.092;2023-07-13T17:33:23;95.80;;;5.60;;
29026;SDS011;16120;48.608;9.092;2023-07-13T17:37:20;95.77;;;5.50;;
29026;SDS011;16120;48.608;9.092;2023-07-13T17:41:17;96.10;;;5.40;;
29026;SDS011;16120;48.608;9.092;2023-07-13T17:45:12;96.10;;;5.57;;
29026;SDS011;16120;48.608;9.092;2023-07-13T17:49:11;96.23;;;5.30;;
29026;SDS011;16120;48.608;9.092;2023-07-13T17:53:15;95.57;;;5.40;;
29026;SDS011;16120;48.608;9.092;2023-07-13T17:57:12;96.37;;;5.80;;
29026;SDS011;16120;48.608;9.092;2023-07-13T18:01:08;96.33;;;5.60;;
29026;SDS011;16120;48.608;9.092;2023-07-13T18:05:04;96.67;;;5.40;;
29026;SDS011;16120;48.608;9.092;2023-07-13T18:09:00;96.80;;;5.50;;
29026;SDS011;16120;48.608;9.092;2023-07-13T18:13:04;96.27;;;5.40;;
29026;SDS011;16120;48.608;9.092;2023-07-13T18:16:59;97.00;;;5.47;;
29026;SDS011;16120;48.608;9.092;2023-07-13T18:20:55;97.10;;;5.60;;
29026;SDS011;16120;48.608;9.092;2023-07-13T18:24:50;97.40;;;5.60;;
29026;SDS011;16120;48.608;9.092;2023-07-13T18:28:46;97.30;;;5.30;;
29026;SDS011;16120;48.608;9.092;2023-07-13T18:32:43;97.10;;;5.47;;
29026;SDS011;16120;48.608;9.092;2023-07-13T18:36:38;96.90;;;5.40;;
29026;SDS011;16120;48.608;9.092;2023-07-13T18:40:33;96.90;;;5.43;;
29026;SDS011;16120;48.608;9.092;2023-07-13T18:44:30;97.30;;;5.30;;
29026;SDS011;16120;48.608;9.092;2023-07-13T18:48:26;96.77;;;5.17;;
29026;SDS011;16120;48.608;9.092;2023-07-13T18:52:23;97.67;;;5.43;;
29026;SDS011;16120;48.608;9.092;2023-07-13T18:56:18;97.90;;;5.50;;
29026;SDS011;16120;48.608;9.092;2023-07-13T19:00:15;98.10;;;5.60;;
29026;SDS011;16120;48.608;9.092;2023-07-13T19:08:16;98.40;;;5.93;;
29026;SDS011;16120;48.608;9.092;2023-07-13T19:12:14;98.00;;;5.50;;
29026;SDS011;16120;48.608;9.092;2023-07-13T19:16:12;98.50;;;5.40;;
29026;SDS011;16120;48.608;9.092;2023-07-13T19:20:10;97.33;;;5.40;;
29026;SDS011;16120;48.608;9.092;2023-07-13T19:24:07;98.13;;;5.67;;
29026;SDS011;16120;48.608;9.092;2023-07-13T19:28:24;98.17;;;5.40;;
29026;SDS011;16120;48.608;9.092;2023-07-13T19:32:22;98.50;;;5.60;;
29026;SDS011;16120;48.608;9.092;2023-07-13T19:36:18;97.53;;;5.47;;
29026;SDS011;16120;48.608;9.092;2023-07-13T19:40:15;98.57;;;5.43;;
29026;SDS011;16120;48.608;9.092;2023-07-13T19:44:11;98.97;;;5.43;;
29026;SDS011;16120;48.608;9.092;2023-07-13T19:48:09;97.40;;;5.40;;
29026;SDS011;16120;48.608;9.092;2023-07-13T19:52:04;97.97;;;5.20;;
29026;SDS011;16120;48.608;9.092;2023-07-13T19:56:03;99.00;;;5.57;;
29026;SDS011;16120;48.608;9.092;2023-07-13T19:59:58;98.27;;;5.40;;
29026;SDS011;16120;48.608;9.092;2023-07-13T20:03:54;99.07;;;5.70;;
29026;SDS011;16120;48.608;9.092;2023-07-13T20:07:51;99.00;;;5.67;;
29026;SDS011;16120;48.608;9.092;2023-07-13T20:11:47;99.70;;;5.40;;
29026;SDS011;16120;48.608;9.092;2023-07-13T20:15:42;99.53;;;5.60;;
29026;SDS011;16120;48.608;9.092;2023-07-13T20:19:39;99.93;;;5.33;;
29026;SDS011;16120;48.608;9.092;2023-07-13T20:23:34;99.37;;;5.53;;
29026;SDS011;16120;48.608;9.092;2023-07-13T20:27:29;100.80;;;5.43;;
29026;SDS011;16120;48.608;9.092;2023-07-13T20:31:25;100.47;;;5.97;;
29026;SDS011;16120;48.608;9.092;2023-07-13T20:35:25;100.80;;;6.17;;
29026;SDS011;16120;48.608;9.092;2023-07-13T20:39:21;100.47;;;6.20;;
29026;SDS011;16120;48.608;9.092;2023-07-13T20:43:16;101.70;;;6.70;;
29026;SDS011;16120;48.608;9.092;2023-07-13T20:47:12;102.17;;;7.50;;
29026;SDS011;16120;48.608;9.092;2023-07-13T20:51:10;101.30;;;6.30;;
29026;SDS011;16120;48.608;9.092;2023-07-13T20:55:08;101.93;;;6.73;;
29026;SDS011;16120;48.608;9.092;2023-07-13T20:59:06;101.80;;;6.70;;
29026;SDS011;16120;48.608;9.092;2023-07-13T21:03:03;101.70;;;6.70;;
29026;SDS011;16120;48.608;9.092;2023-07-13T21:07:00;101.17;;;6.53;;
29026;SDS011;16120;48.608;9.092;2023-07-13T21:10:55;102.27;;;6.80;;
29026;SDS011;16120;48.608;9.092;2023-07-13T21:14:51;101.97;;;6.50;;
29026;SDS011;16120;48.608;9.092;2023-07-13T21:18:46;102.27;;;6.90;;
29026;SDS011;16120;48.608;9.092;2023-07-13T21:22:43;102.17;;;6.73;;
29026;SDS011;16120;48.608;9.092;2023-07-13T21:26:38;102.60;;;7.20;;
29026;SDS011;16120;48.608;9.092;2023-07-13T21:30:34;102.57;;;6.63;;
29026;SDS011;16120;48.608;9.092;2023-07-13T21:34:31;102.80;;;6.70;;
29026;SDS011;16120;48.608;9.092;2023-07-13T21:38:28;102.77;;;6.43;;
29026;SDS011;16120;48.608;9.092;2023-07-13T21:42:24;102.77;;;6.77;;
29026;SDS011;16120;48.608;9.092;2023-07-13T21:46:19;102.87;;;6.53;;
29026;SDS011;16120;48.608;9.092;2023-07-13T21:50:16;103.17;;;6.90;;
29026;SDS011;16120;48.608;9.092;2023-07-13T21:54:14;103.23;;;6.97;;
29026;SDS011;16120;48.608;9.092;2023-07-13T21:58:13;103.47;;;7.40;;
29026;SDS011;16120;48.608;9.092;2023-07-13T22:02:10;104.00;;;7.47;;
29026;SDS011;16120;48.608;9.092;2023-07-13T22:06:20;104.20;;;7.50;;
29026;SDS011;16120;48.608;9.092;2023-07-13T22:10:18;103.83;;;7.13;;
29026;SDS011;16120;48.608;9.092;2023-07-13T22:14:14;104.43;;;7.90;;
29026;SDS011;16120;48.608;9.092;2023-07-13T22:18:11;104.17;;;7.47;;
29026;SDS011;16120;48.608;9.092;2023-07-13T22:22:07;104.50;;;7.20;;
29026;SDS011;16120;48.608;9.092;2023-07-13T22:26:06;104.23;;;7.30;;
29026;SDS011;16120;48.608;9.092;2023-07-13T22:30:08;104.27;;;7.20;;
29026;SDS011;16120;48.608;9.092;2023-07-13T22:34:04;104.77;;;7.27;;
29026;SDS011;16120;48.608;9.092;2023-07-13T22:38:00;104.70;;;7.30;;
29026;SDS011;16120;48.608;9.092;2023-07-13T22:41:57;104.57;;;7.20;;
29026;SDS011;16120;48.608;9.092;2023-07-13T22:45:53;104.57;;;7.60;;
29026;SDS011;16120;48.608;9.092;2023-07-13T22:49:49;105.10;;;7.40;;
29026;SDS011;16120;48.608;9.092;2023-07-13T22:53:45;104.93;;;7.40;;
29026;SDS011;16120;48.608;9.092;2023-07-13T22:57:41;104.47;;;7.23;;
29026;SDS011;16120;48.608;9.092;2023-07-13T23:01:37;105.10;;;7.13;;
29026;SDS011;16120;48.608;9.092;2023-07-13T23:05:34;105.27;;;7.13;;
29026;SDS011;16120;48.608;9.092;2023-07-13T23:09:30;104.97;;;8.00;;
29026;SDS011;16120;48.608;9.092;2023-07-13T23:13:26;105.43;;;7.57;;
29026;SDS011;16120;48.608;9.092;2023-07-13T23:17:22;105.27;;;7.47;;
29026;SDS011;16120;48.608;9.092;2023-07-13T23:21:18;105.27;;;7.90;;
29026;SDS011;16120;48.608;9.092;2023-07-13T23:25:14;105.47;;;7.63;;
29026;SDS011;16120;48.608;9.092;2023-07-13T23:29:10;105.67;;;7.50;;
29026;SDS011;16120;48.608;9.092;2023-07-13T23:33:09;105.40;;;7.60;;
29026;SDS011;16120;48.608;9.092;2023-07-13T23:37:13;105.67;;;7.97;;
29026;SDS011;16120;48.608;9.092;2023-07-13T23:41:10;105.87;;;7.43;;
29026;SDS011;16120;48.608;9.092;2023-07-13T23:45:07;105.97;;;7.47;;